sensor_id;sensor_type;location;lat;lon;timestamp;P1;durP1;ratioP1;P2;durP2;ratioP2
3261;SDS011;1643;47.746;9.000;2022-10-12T00:01:03;7.90;;;5.23;;
3261;SDS011;1643;47.746;9.000;2022-10-12T00:03:29;6.13;;;5.47;;
3261;SDS011;1643;47.746;9.000;2022-10-12T00:06:03;8.53;;;5.17;;
3261;SDS011;1643;47.746;9.000;2022-10-12T00:08:28;7.30;;;5.23;;
3261;SDS011;1643;47.746;9.000;2022-10-12T00:10:54;10.20;;;6.50;;
3261;SDS011;1643;47.746;9.000;2022-10-12T00:13:20;6.43;;;4.60;;
3261;SDS011;1643;47.746;9.000;2022-10-12T00:15:45;8.20;;;5.43;;
3261;SDS011;1643;47.746;9.000;2022-10-12T00:18:11;7.73;;;4.97;;
3261;SDS011;1643;47.746;9.000;2022-10-12T00:20:36;6.57;;;4.80;;
3261;SDS011;1643;47.746;9.000;2022-10-12T00:23:02;9.90;;;5.40;;
3261;SDS011;1643;47.746;9.000;2022-10-12T00:25:28;6.40;;;5.10;;
3261;SDS011;1643;47.746;9.000;2022-10-12T00:27:53;5.30;;;4.27;;
3261;SDS011;1643;47.746;9.000;2022-10-12T00:30:19;6.73;;;5.17;;
3261;SDS011;1643;47.746;9.000;2022-10-12T00:32:45;9.10;;;4.33;;
3261;SDS011;1643;47.746;9.000;2022-10-12T00:35:10;9.13;;;4.97;;
3261;SDS011;1643;47.746;9.000;2022-10-12T00:37:36;7.63;;;5.33;;
3261;SDS011;1643;47.746;9.000;2022-10-12T00:40:02;7.70;;;5.03;;
3261;SDS011;1643;47.746;9.000;2022-10-12T00:42:27;5.50;;;4.10;;
3261;SDS011;1643;47.746;9.000;2022-10-12T00:44:53;8.53;;;5.20;;
3261;SDS011;1643;47.746;9.000;2022-10-12T00:47:21;7.80;;;5.40;;
3261;SDS011;1643;47.746;9.000;2022-10-12T00:50:33;8.67;;;6.20;;
3261;SDS011;1643;47.746;9.000;2022-10-12T00:53:05;6.97;;;5.83;;
3261;SDS011;1643;47.746;9.000;2022-10-12T00:55:37;6.10;;;4.80;;
3261;SDS011;1643;47.746;9.000;2022-10-12T00:58:07;9.67;;;4.97;;
3261;SDS011;1643;47.746;9.000;2022-10-12T01:00:34;6.40;;;5.80;;
3261;SDS011;1643;47.746;9.000;2022-10-12T01:03:02;11.27;;;6.30;;
3261;SDS011;1643;47.746;9.000;2022-10-12T01:05:28;7.50;;;5.70;;
3261;SDS011;1643;47.746;9.000;2022-10-12T01:07:54;8.30;;;5.63;;
3261;SDS011;1643;47.746;9.000;2022-10-12T01:10:19;7.67;;;6.17;;
3261;SDS011;1643;47.746;9.000;2022-10-12T01:12:45;10.00;;;6.10;;
3261;SDS011;1643;47.746;9.000;2022-10-12T01:15:12;11.33;;;6.20;;
3261;SDS011;1643;47.746;9.000;2022-10-12T01:17:41;10.93;;;7.13;;
3261;SDS011;1643;47.746;9.000;2022-10-12T01:22:59;9.63;;;7.10;;
3261;SDS011;1643;47.746;9.000;2022-10-12T01:31:18;12.60;;;8.27;;
3261;SDS011;1643;47.746;9.000;2022-10-12T01:33:49;10.20;;;7.40;;
3261;SDS011;1643;47.746;9.000;2022-10-12T01:36:29;14.80;;;7.90;;
3261;SDS011;1643;47.746;9.000;2022-10-12T01:41:43;13.47;;;8.57;;
3261;SDS011;1643;47.746;9.000;2022-10-12T01:44:22;10.87;;;7.90;;
3261;SDS011;1643;47.746;9.000;2022-10-12T01:46:50;10.27;;;8.60;;
3261;SDS011;1643;47.746;9.000;2022-10-12T01:49:18;11.00;;;7.77;;
3261;SDS011;1643;47.746;9.000;2022-10-12T01:54:54;17.87;;;7.63;;
3261;SDS011;1643;47.746;9.000;2022-10-12T02:00:32;12.53;;;7.17;;
3261;SDS011;1643;47.746;9.000;2022-10-12T02:03:33;9.13;;;7.83;;
3261;SDS011;1643;47.746;9.000;2022-10-12T02:06:26;13.33;;;8.30;;
3261;SDS011;1643;47.746;9.000;2022-10-12T02:09:02;10.70;;;7.90;;
3261;SDS011;1643;47.746;9.000;2022-10-12T02:11:38;10.50;;;7.50;;
3261;SDS011;1643;47.746;9.000;2022-10-12T02:14:08;10.23;;;6.67;;
3261;SDS011;1643;47.746;9.000;2022-10-12T02:16:40;10.40;;;7.70;;
3261;SDS011;1643;47.746;9.000;2022-10-12T02:19:10;9.50;;;6.20;;
3261;SDS011;1643;47.746;9.000;2022-10-12T02:21:40;9.20;;;6.23;;
3261;SDS011;1643;47.746;9.000;2022-10-12T02:24:07;7.93;;;6.20;;
3261;SDS011;1643;47.746;9.000;2022-10-12T02:26:36;7.60;;;5.70;;
3261;SDS011;1643;47.746;9.000;2022-10-12T02:29:05;7.80;;;6.03;;
3261;SDS011;1643;47.746;9.000;2022-10-12T02:31:35;10.10;;;5.93;;
3261;SDS011;1643;47.746;9.000;2022-10-12T02:39:53;12.93;;;6.27;;
3261;SDS011;1643;47.746;9.000;2022-10-12T02:42:25;9.57;;;6.30;;
3261;SDS011;1643;47.746;9.000;2022-10-12T02:44:56;6.70;;;5.43;;
3261;SDS011;1643;47.746;9.000;2022-10-12T02:47:25;13.63;;;6.00;;
3261;SDS011;1643;47.746;9.000;2022-10-12T02:49:54;7.63;;;6.13;;
3261;SDS011;1643;47.746;9.000;2022-10-12T02:52:21;10.40;;;6.20;;
3261;SDS011;1643;47.746;9.000;2022-10-12T02:54:48;9.00;;;6.57;;
3261;SDS011;1643;47.746;9.000;2022-10-12T02:57:13;9.97;;;6.20;;
3261;SDS011;1643;47.746;9.000;2022-10-12T02:59:39;8.27;;;6.80;;
3261;SDS011;1643;47.746;9.000;2022-10-12T03:02:05;6.67;;;5.90;;
3261;SDS011;1643;47.746;9.000;2022-10-12T03:04:30;12.00;;;6.27;;
3261;SDS011;1643;47.746;9.000;2022-10-12T03:06:56;9.50;;;6.90;;
3261;SDS011;1643;47.746;9.000;2022-10-12T03:09:22;6.93;;;5.87;;
3261;SDS011;1643;47.746;9.000;2022-10-12T03:11:47;7.63;;;6.03;;
3261;SDS011;1643;47.746;9.000;2022-10-12T03:14:13;9.73;;;6.60;;
3261;SDS011;1643;47.746;9.000;2022-10-12T03:16:39;11.10;;;7.93;;
3261;SDS011;1643;47.746;9.000;2022-10-12T03:19:05;12.03;;;7.93;;
3261;SDS011;1643;47.746;9.000;2022-10-12T03:21:31;8.63;;;7.73;;
3261;SDS011;1643;47.746;9.000;2022-10-12T03:23:57;14.67;;;9.07;;
3261;SDS011;1643;47.746;9.000;2022-10-12T03:26:22;12.40;;;8.37;;
3261;SDS011;1643;47.746;9.000;2022-10-12T03:28:48;12.07;;;7.73;;
3261;SDS011;1643;47.746;9.000;2022-10-12T03:31:14;10.30;;;7.80;;
3261;SDS011;1643;47.746;9.000;2022-10-12T03:33:39;11.60;;;8.00;;
3261;SDS011;1643;47.746;9.000;2022-10-12T03:36:05;12.70;;;8.53;;
3261;SDS011;1643;47.746;9.000;2022-10-12T03:38:31;11.50;;;7.40;;
3261;SDS011;1643;47.746;9.000;2022-10-12T03:40:56;10.70;;;8.00;;
3261;SDS011;1643;47.746;9.000;2022-10-12T03:43:22;15.23;;;8.77;;
3261;SDS011;1643;47.746;9.000;2022-10-12T03:45:48;12.47;;;8.33;;
3261;SDS011;1643;47.746;9.000;2022-10-12T03:48:13;11.70;;;8.27;;
3261;SDS011;1643;47.746;9.000;2022-10-12T03:50:39;12.93;;;8.27;;
3261;SDS011;1643;47.746;9.000;2022-10-12T03:53:05;13.63;;;9.83;;
3261;SDS011;1643;47.746;9.000;2022-10-12T03:55:31;13.37;;;8.43;;
3261;SDS011;1643;47.746;9.000;2022-10-12T03:57:57;12.37;;;9.00;;
3261;SDS011;1643;47.746;9.000;2022-10-12T04:00:23;10.80;;;8.60;;
3261;SDS011;1643;47.746;9.000;2022-10-12T04:02:49;14.33;;;9.43;;
3261;SDS011;1643;47.746;9.000;2022-10-12T04:05:15;13.47;;;9.50;;
3261;SDS011;1643;47.746;9.000;2022-10-12T04:07:41;12.00;;;10.33;;
3261;SDS011;1643;47.746;9.000;2022-10-12T04:10:07;17.20;;;9.70;;
3261;SDS011;1643;47.746;9.000;2022-10-12T04:12:32;12.23;;;8.70;;
3261;SDS011;1643;47.746;9.000;2022-10-12T04:14:58;17.43;;;10.60;;
3261;SDS011;1643;47.746;9.000;2022-10-12T04:17:24;12.57;;;9.63;;
3261;SDS011;1643;47.746;9.000;2022-10-12T04:19:49;13.23;;;9.77;;
3261;SDS011;1643;47.746;9.000;2022-10-12T04:22:15;13.13;;;9.50;;
3261;SDS011;1643;47.746;9.000;2022-10-12T04:24:41;12.67;;;9.10;;
3261;SDS011;1643;47.746;9.000;2022-10-12T04:27:06;11.97;;;8.80;;
3261;SDS011;1643;47.746;9.000;2022-10-12T04:29:32;13.00;;;8.87;;
3261;SDS011;1643;47.746;9.000;2022-10-12T04:31:57;9.90;;;8.53;;
3261;SDS011;1643;47.746;9.000;2022-10-12T04:34:23;10.37;;;8.13;;
3261;SDS011;1643;47.746;9.000;2022-10-12T04:36:48;10.30;;;8.87;;
3261;SDS011;1643;47.746;9.000;2022-10-12T04:39:14;13.33;;;9.03;;
3261;SDS011;1643;47.746;9.000;2022-10-12T04:41:40;12.70;;;9.67;;
3261;SDS011;1643;47.746;9.000;2022-10-12T04:44:06;14.10;;;8.63;;
3261;SDS011;1643;47.746;9.000;2022-10-12T04:46:32;16.43;;;9.50;;
3261;SDS011;1643;47.746;9.000;2022-10-12T04:48:58;11.57;;;8.20;;
3261;SDS011;1643;47.746;9.000;2022-10-12T04:51:24;13.30;;;8.43;;
3261;SDS011;1643;47.746;9.000;2022-10-12T04:53:49;11.20;;;9.00;;
3261;SDS011;1643;47.746;9.000;2022-10-12T04:56:15;13.30;;;9.17;;
3261;SDS011;1643;47.746;9.000;2022-10-12T04:58:41;13.27;;;9.03;;
3261;SDS011;1643;47.746;9.000;2022-10-12T05:01:07;14.10;;;8.80;;
3261;SDS011;1643;47.746;9.000;2022-10-12T05:03:33;14.83;;;8.77;;
3261;SDS011;1643;47.746;9.000;2022-10-12T05:05:58;13.77;;;8.40;;
3261;SDS011;1643;47.746;9.000;2022-10-12T05:08:24;9.93;;;7.90;;
3261;SDS011;1643;47.746;9.000;2022-10-12T05:10:50;17.33;;;9.80;;
3261;SDS011;1643;47.746;9.000;2022-10-12T05:13:15;15.77;;;11.00;;
3261;SDS011;1643;47.746;9.000;2022-10-12T05:15:42;11.97;;;9.97;;
3261;SDS011;1643;47.746;9.000;2022-10-12T05:18:08;10.57;;;8.83;;
3261;SDS011;1643;47.746;9.000;2022-10-12T05:20:34;11.93;;;8.80;;
3261;SDS011;1643;47.746;9.000;2022-10-12T05:23:00;9.37;;;8.00;;
3261;SDS011;1643;47.746;9.000;2022-10-12T05:25:26;14.63;;;9.40;;
3261;SDS011;1643;47.746;9.000;2022-10-12T05:27:53;9.57;;;8.57;;
3261;SDS011;1643;47.746;9.000;2022-10-12T05:30:20;13.10;;;9.47;;
3261;SDS011;1643;47.746;9.000;2022-10-12T05:32:46;13.67;;;9.40;;
3261;SDS011;1643;47.746;9.000;2022-10-12T05:35:12;16.20;;;10.17;;
3261;SDS011;1643;47.746;9.000;2022-10-12T05:37:38;11.33;;;8.90;;
3261;SDS011;1643;47.746;9.000;2022-10-12T05:40:03;12.47;;;9.70;;
3261;SDS011;1643;47.746;9.000;2022-10-12T05:42:30;12.97;;;9.53;;
3261;SDS011;1643;47.746;9.000;2022-10-12T05:44:55;14.20;;;10.13;;
3261;SDS011;1643;47.746;9.000;2022-10-12T05:47:21;15.47;;;11.07;;
3261;SDS011;1643;47.746;9.000;2022-10-12T05:49:46;11.50;;;9.53;;
3261;SDS011;1643;47.746;9.000;2022-10-12T05:52:12;14.73;;;10.20;;
3261;SDS011;1643;47.746;9.000;2022-10-12T05:54:38;16.90;;;11.13;;
3261;SDS011;1643;47.746;9.000;2022-10-12T05:57:03;15.30;;;9.77;;
3261;SDS011;1643;47.746;9.000;2022-10-12T05:59:29;13.73;;;10.07;;
3261;SDS011;1643;47.746;9.000;2022-10-12T06:01:54;13.53;;;10.80;;
3261;SDS011;1643;47.746;9.000;2022-10-12T06:04:20;17.83;;;10.57;;
3261;SDS011;1643;47.746;9.000;2022-10-12T06:06:49;14.13;;;10.17;;
3261;SDS011;1643;47.746;9.000;2022-10-12T06:09:15;15.07;;;10.20;;
3261;SDS011;1643;47.746;9.000;2022-10-12T06:11:40;15.00;;;11.20;;
3261;SDS011;1643;47.746;9.000;2022-10-12T06:14:06;14.03;;;10.67;;
3261;SDS011;1643;47.746;9.000;2022-10-12T06:16:32;15.90;;;11.23;;
3261;SDS011;1643;47.746;9.000;2022-10-12T06:18:58;16.17;;;11.60;;
3261;SDS011;1643;47.746;9.000;2022-10-12T06:21:23;13.80;;;9.60;;
3261;SDS011;1643;47.746;9.000;2022-10-12T06:23:49;15.57;;;9.50;;
3261;SDS011;1643;47.746;9.000;2022-10-12T06:26:15;12.70;;;9.80;;
3261;SDS011;1643;47.746;9.000;2022-10-12T06:28:40;14.27;;;10.10;;
3261;SDS011;1643;47.746;9.000;2022-10-12T06:31:07;18.57;;;9.80;;
3261;SDS011;1643;47.746;9.000;2022-10-12T06:33:34;15.27;;;10.50;;
3261;SDS011;1643;47.746;9.000;2022-10-12T06:36:00;15.30;;;10.57;;
3261;SDS011;1643;47.746;9.000;2022-10-12T06:38:26;14.10;;;10.80;;
3261;SDS011;1643;47.746;9.000;2022-10-12T06:40:52;14.87;;;10.43;;
3261;SDS011;1643;47.746;9.000;2022-10-12T06:43:18;19.90;;;12.20;;
3261;SDS011;1643;47.746;9.000;2022-10-12T06:45:44;16.73;;;12.20;;
3261;SDS011;1643;47.746;9.000;2022-10-12T06:48:10;16.77;;;12.17;;
3261;SDS011;1643;47.746;9.000;2022-10-12T06:50:35;19.67;;;13.60;;
3261;SDS011;1643;47.746;9.000;2022-10-12T06:53:01;17.07;;;12.30;;
3261;SDS011;1643;47.746;9.000;2022-10-12T06:55:27;17.13;;;12.00;;
3261;SDS011;1643;47.746;9.000;2022-10-12T06:57:54;19.83;;;12.53;;
3261;SDS011;1643;47.746;9.000;2022-10-12T07:00:20;15.93;;;12.70;;
3261;SDS011;1643;47.746;9.000;2022-10-12T07:02:47;24.37;;;14.17;;
3261;SDS011;1643;47.746;9.000;2022-10-12T07:05:14;16.97;;;12.30;;
3261;SDS011;1643;47.746;9.000;2022-10-12T07:07:40;21.50;;;13.03;;
3261;SDS011;1643;47.746;9.000;2022-10-12T07:10:06;20.07;;;12.43;;
3261;SDS011;1643;47.746;9.000;2022-10-12T07:12:34;20.13;;;13.70;;
3261;SDS011;1643;47.746;9.000;2022-10-12T07:15:01;23.10;;;14.57;;
3261;SDS011;1643;47.746;9.000;2022-10-12T07:17:27;20.77;;;12.70;;
3261;SDS011;1643;47.746;9.000;2022-10-12T07:19:52;18.03;;;13.00;;
3261;SDS011;1643;47.746;9.000;2022-10-12T07:22:18;21.47;;;13.87;;
3261;SDS011;1643;47.746;9.000;2022-10-12T07:24:43;20.47;;;14.17;;
3261;SDS011;1643;47.746;9.000;2022-10-12T07:27:09;21.93;;;13.83;;
3261;SDS011;1643;47.746;9.000;2022-10-12T07:29:36;20.13;;;13.10;;
3261;SDS011;1643;47.746;9.000;2022-10-12T07:32:02;19.47;;;14.13;;
3261;SDS011;1643;47.746;9.000;2022-10-12T07:34:29;19.50;;;13.10;;
3261;SDS011;1643;47.746;9.000;2022-10-12T07:36:54;15.57;;;11.73;;
3261;SDS011;1643;47.746;9.000;2022-10-12T07:39:21;17.70;;;12.70;;
3261;SDS011;1643;47.746;9.000;2022-10-12T07:41:47;18.50;;;12.27;;
3261;SDS011;1643;47.746;9.000;2022-10-12T07:44:13;20.80;;;12.20;;
3261;SDS011;1643;47.746;9.000;2022-10-12T07:46:39;14.93;;;10.77;;
3261;SDS011;1643;47.746;9.000;2022-10-12T07:49:05;17.07;;;11.60;;
3261;SDS011;1643;47.746;9.000;2022-10-12T07:51:30;20.13;;;12.60;;
3261;SDS011;1643;47.746;9.000;2022-10-12T07:53:56;20.43;;;14.00;;
3261;SDS011;1643;47.746;9.000;2022-10-12T07:56:24;20.13;;;14.90;;
3261;SDS011;1643;47.746;9.000;2022-10-12T07:58:51;17.87;;;13.30;;
3261;SDS011;1643;47.746;9.000;2022-10-12T08:01:19;23.33;;;12.50;;
3261;SDS011;1643;47.746;9.000;2022-10-12T08:03:46;18.00;;;11.97;;
3261;SDS011;1643;47.746;9.000;2022-10-12T08:06:16;14.97;;;11.17;;
3261;SDS011;1643;47.746;9.000;2022-10-12T08:08:42;16.30;;;11.17;;
3261;SDS011;1643;47.746;9.000;2022-10-12T08:11:09;17.80;;;11.07;;
3261;SDS011;1643;47.746;9.000;2022-10-12T08:13:36;14.10;;;10.60;;
3261;SDS011;1643;47.746;9.000;2022-10-12T08:16:02;25.20;;;10.67;;
3261;SDS011;1643;47.746;9.000;2022-10-12T08:18:30;15.43;;;10.07;;
3261;SDS011;1643;47.746;9.000;2022-10-12T08:20:56;15.23;;;11.20;;
3261;SDS011;1643;47.746;9.000;2022-10-12T08:23:22;18.63;;;10.53;;
3261;SDS011;1643;47.746;9.000;2022-10-12T08:25:51;16.83;;;10.17;;
3261;SDS011;1643;47.746;9.000;2022-10-12T08:28:17;13.60;;;9.33;;
3261;SDS011;1643;47.746;9.000;2022-10-12T08:30:43;17.60;;;9.03;;
3261;SDS011;1643;47.746;9.000;2022-10-12T08:33:09;13.03;;;9.80;;
3261;SDS011;1643;47.746;9.000;2022-10-12T08:35:37;14.30;;;8.57;;
3261;SDS011;1643;47.746;9.000;2022-10-12T08:38:04;15.00;;;9.10;;
3261;SDS011;1643;47.746;9.000;2022-10-12T08:40:30;21.90;;;10.70;;
3261;SDS011;1643;47.746;9.000;2022-10-12T08:43:05;14.07;;;8.73;;
3261;SDS011;1643;47.746;9.000;2022-10-12T08:45:52;14.10;;;8.57;;
3261;SDS011;1643;47.746;9.000;2022-10-12T08:48:21;11.83;;;8.13;;
3261;SDS011;1643;47.746;9.000;2022-10-12T08:50:51;12.53;;;8.40;;
3261;SDS011;1643;47.746;9.000;2022-10-12T08:55:51;11.87;;;8.53;;
3261;SDS011;1643;47.746;9.000;2022-10-12T08:58:18;10.80;;;7.87;;
3261;SDS011;1643;47.746;9.000;2022-10-12T09:01:11;12.40;;;8.37;;
3261;SDS011;1643;47.746;9.000;2022-10-12T09:03:57;9.60;;;7.10;;
3261;SDS011;1643;47.746;9.000;2022-10-12T09:06:32;12.93;;;6.90;;
3261;SDS011;1643;47.746;9.000;2022-10-12T09:14:37;11.53;;;7.70;;
3261;SDS011;1643;47.746;9.000;2022-10-12T09:17:06;9.73;;;6.93;;
3261;SDS011;1643;47.746;9.000;2022-10-12T09:20:15;13.97;;;6.83;;
3261;SDS011;1643;47.746;9.000;2022-10-12T09:22:44;11.33;;;7.07;;
3261;SDS011;1643;47.746;9.000;2022-10-12T09:25:16;11.93;;;8.50;;
3261;SDS011;1643;47.746;9.000;2022-10-12T09:27:46;9.33;;;7.37;;
3261;SDS011;1643;47.746;9.000;2022-10-12T09:30:15;12.70;;;8.07;;
3261;SDS011;1643;47.746;9.000;2022-10-12T09:32:47;14.07;;;8.43;;
3261;SDS011;1643;47.746;9.000;2022-10-12T09:35:43;10.10;;;7.37;;
3261;SDS011;1643;47.746;9.000;2022-10-12T09:38:10;13.43;;;6.93;;
3261;SDS011;1643;47.746;9.000;2022-10-12T09:40:36;8.23;;;5.93;;
3261;SDS011;1643;47.746;9.000;2022-10-12T09:43:03;8.57;;;6.73;;
3261;SDS011;1643;47.746;9.000;2022-10-12T09:45:30;11.03;;;7.70;;
3261;SDS011;1643;47.746;9.000;2022-10-12T09:50:53;14.00;;;8.10;;
3261;SDS011;1643;47.746;9.000;2022-10-12T09:53:34;10.57;;;7.37;;
3261;SDS011;1643;47.746;9.000;2022-10-12T09:56:20;7.40;;;6.40;;
3261;SDS011;1643;47.746;9.000;2022-10-12T09:58:49;11.40;;;7.57;;
3261;SDS011;1643;47.746;9.000;2022-10-12T10:01:24;12.87;;;8.30;;
3261;SDS011;1643;47.746;9.000;2022-10-12T10:06:50;8.33;;;6.80;;
3261;SDS011;1643;47.746;9.000;2022-10-12T10:11:56;8.33;;;6.50;;
3261;SDS011;1643;47.746;9.000;2022-10-12T10:14:34;10.43;;;7.17;;
3261;SDS011;1643;47.746;9.000;2022-10-12T10:17:00;10.40;;;6.70;;
3261;SDS011;1643;47.746;9.000;2022-10-12T10:19:26;17.93;;;7.83;;
3261;SDS011;1643;47.746;9.000;2022-10-12T10:21:52;8.27;;;6.87;;
3261;SDS011;1643;47.746;9.000;2022-10-12T10:24:24;10.20;;;7.23;;
3261;SDS011;1643;47.746;9.000;2022-10-12T10:26:56;8.73;;;6.50;;
3261;SDS011;1643;47.746;9.000;2022-10-12T10:32:07;11.20;;;6.80;;
3261;SDS011;1643;47.746;9.000;2022-10-12T10:37:29;11.27;;;7.27;;
3261;SDS011;1643;47.746;9.000;2022-10-12T10:39:56;10.33;;;7.10;;
3261;SDS011;1643;47.746;9.000;2022-10-12T10:42:26;10.07;;;7.00;;
3261;SDS011;1643;47.746;9.000;2022-10-12T10:44:59;9.73;;;7.50;;
3261;SDS011;1643;47.746;9.000;2022-10-12T10:47:28;7.67;;;5.67;;
3261;SDS011;1643;47.746;9.000;2022-10-12T10:49:59;8.67;;;6.30;;
3261;SDS011;1643;47.746;9.000;2022-10-12T10:52:30;8.10;;;5.50;;
3261;SDS011;1643;47.746;9.000;2022-10-12T11:00:31;8.27;;;5.73;;
3261;SDS011;1643;47.746;9.000;2022-10-12T11:03:13;10.37;;;5.77;;
3261;SDS011;1643;47.746;9.000;2022-10-12T11:05:50;7.87;;;5.10;;
3261;SDS011;1643;47.746;9.000;2022-10-12T11:08:23;7.27;;;5.80;;
3261;SDS011;1643;47.746;9.000;2022-10-12T11:11:10;8.70;;;6.47;;
3261;SDS011;1643;47.746;9.000;2022-10-12T11:13:40;10.83;;;6.60;;
3261;SDS011;1643;47.746;9.000;2022-10-12T11:16:35;6.50;;;5.90;;
3261;SDS011;1643;47.746;9.000;2022-10-12T11:22:11;9.10;;;6.10;;
3261;SDS011;1643;47.746;9.000;2022-10-12T11:24:53;9.93;;;6.63;;
3261;SDS011;1643;47.746;9.000;2022-10-12T11:27:42;7.30;;;6.27;;
3261;SDS011;1643;47.746;9.000;2022-10-12T11:30:22;7.50;;;5.70;;
3261;SDS011;1643;47.746;9.000;2022-10-12T11:32:53;9.30;;;6.20;;
3261;SDS011;1643;47.746;9.000;2022-10-12T11:35:25;9.30;;;6.50;;
3261;SDS011;1643;47.746;9.000;2022-10-12T11:38:00;7.40;;;6.20;;
3261;SDS011;1643;47.746;9.000;2022-10-12T11:40:39;10.60;;;5.83;;
3261;SDS011;1643;47.746;9.000;2022-10-12T11:43:12;11.03;;;6.27;;
3261;SDS011;1643;47.746;9.000;2022-10-12T11:45:52;12.13;;;7.30;;
3261;SDS011;1643;47.746;9.000;2022-10-12T11:48:44;10.10;;;7.23;;
3261;SDS011;1643;47.746;9.000;2022-10-12T11:51:21;11.33;;;7.23;;
3261;SDS011;1643;47.746;9.000;2022-10-12T11:56:40;9.30;;;6.93;;
3261;SDS011;1643;47.746;9.000;2022-10-12T11:59:36;11.40;;;6.83;;
3261;SDS011;1643;47.746;9.000;2022-10-12T12:05:10;13.60;;;7.70;;
3261;SDS011;1643;47.746;9.000;2022-10-12T12:08:01;15.23;;;8.70;;
3261;SDS011;1643;47.746;9.000;2022-10-12T12:16:25;15.33;;;6.70;;
3261;SDS011;1643;47.746;9.000;2022-10-12T12:18:23;8.17;;;6.10;;
3261;SDS011;1643;47.746;9.000;2022-10-12T12:23:40;10.60;;;7.97;;
3261;SDS011;1643;47.746;9.000;2022-10-12T12:26:15;17.27;;;10.10;;
3261;SDS011;1643;47.746;9.000;2022-10-12T12:28:44;10.83;;;7.57;;
3261;SDS011;1643;47.746;9.000;2022-10-12T12:31:31;15.20;;;8.80;;
3261;SDS011;1643;47.746;9.000;2022-10-12T12:34:13;17.10;;;7.33;;
3261;SDS011;1643;47.746;9.000;2022-10-12T12:36:41;10.97;;;7.70;;
3261;SDS011;1643;47.746;9.000;2022-10-12T12:42:04;14.17;;;8.23;;
3261;SDS011;1643;47.746;9.000;2022-10-12T12:44:39;12.07;;;7.50;;
3261;SDS011;1643;47.746;9.000;2022-10-12T12:49:53;11.47;;;6.80;;
3261;SDS011;1643;47.746;9.000;2022-10-12T13:00:36;15.03;;;8.30;;
3261;SDS011;1643;47.746;9.000;2022-10-12T13:03:17;11.20;;;7.50;;
3261;SDS011;1643;47.746;9.000;2022-10-12T13:08:41;10.33;;;7.83;;
3261;SDS011;1643;47.746;9.000;2022-10-12T13:11:29;10.20;;;6.93;;
3261;SDS011;1643;47.746;9.000;2022-10-12T13:14:19;14.83;;;8.10;;
3261;SDS011;1643;47.746;9.000;2022-10-12T13:19:31;12.20;;;7.90;;
3261;SDS011;1643;47.746;9.000;2022-10-12T13:22:01;8.03;;;6.37;;
3261;SDS011;1643;47.746;9.000;2022-10-12T13:24:31;10.20;;;7.63;;
3261;SDS011;1643;47.746;9.000;2022-10-12T13:27:11;7.07;;;6.37;;
3261;SDS011;1643;47.746;9.000;2022-10-12T13:29:47;8.30;;;6.30;;
3261;SDS011;1643;47.746;9.000;2022-10-12T13:35:28;12.60;;;7.67;;
3261;SDS011;1643;47.746;9.000;2022-10-12T13:38:01;9.27;;;6.93;;
3261;SDS011;1643;47.746;9.000;2022-10-12T13:45:51;14.50;;;7.43;;
3261;SDS011;1643;47.746;9.000;2022-10-12T13:48:18;11.30;;;6.83;;
3261;SDS011;1643;47.746;9.000;2022-10-12T13:50:58;12.27;;;7.07;;
3261;SDS011;1643;47.746;9.000;2022-10-12T13:53:26;11.87;;;6.33;;
3261;SDS011;1643;47.746;9.000;2022-10-12T13:56:09;13.70;;;6.30;;
3261;SDS011;1643;47.746;9.000;2022-10-12T13:58:48;8.40;;;6.60;;
3261;SDS011;1643;47.746;9.000;2022-10-12T14:01:18;8.47;;;6.10;;
3261;SDS011;1643;47.746;9.000;2022-10-12T14:03:44;6.73;;;5.40;;
3261;SDS011;1643;47.746;9.000;2022-10-12T14:06:23;10.07;;;6.30;;
3261;SDS011;1643;47.746;9.000;2022-10-12T14:09:06;7.87;;;5.63;;
3261;SDS011;1643;47.746;9.000;2022-10-12T14:11:34;5.73;;;4.90;;
3261;SDS011;1643;47.746;9.000;2022-10-12T14:14:01;12.30;;;7.03;;
3261;SDS011;1643;47.746;9.000;2022-10-12T14:16:27;11.53;;;6.40;;
3261;SDS011;1643;47.746;9.000;2022-10-12T14:18:53;7.63;;;6.40;;
3261;SDS011;1643;47.746;9.000;2022-10-12T14:21:23;10.10;;;6.47;;
3261;SDS011;1643;47.746;9.000;2022-10-12T14:23:55;6.93;;;6.03;;
3261;SDS011;1643;47.746;9.000;2022-10-12T14:26:23;13.47;;;6.93;;
3261;SDS011;1643;47.746;9.000;2022-10-12T14:28:53;10.50;;;6.30;;
3261;SDS011;1643;47.746;9.000;2022-10-12T14:31:44;8.40;;;6.60;;
3261;SDS011;1643;47.746;9.000;2022-10-12T14:36:59;7.60;;;5.90;;
3261;SDS011;1643;47.746;9.000;2022-10-12T14:39:28;10.27;;;7.00;;
3261;SDS011;1643;47.746;9.000;2022-10-12T14:41:54;10.83;;;6.33;;
3261;SDS011;1643;47.746;9.000;2022-10-12T14:44:21;11.00;;;6.70;;
3261;SDS011;1643;47.746;9.000;2022-10-12T14:51:47;8.60;;;6.40;;
3261;SDS011;1643;47.746;9.000;2022-10-12T14:54:14;8.50;;;5.63;;
3261;SDS011;1643;47.746;9.000;2022-10-12T14:56:40;9.27;;;6.10;;
3261;SDS011;1643;47.746;9.000;2022-10-12T14:59:06;9.33;;;6.20;;
3261;SDS011;1643;47.746;9.000;2022-10-12T15:01:31;7.13;;;5.37;;
3261;SDS011;1643;47.746;9.000;2022-10-12T15:03:57;12.00;;;6.33;;
3261;SDS011;1643;47.746;9.000;2022-10-12T15:06:22;8.63;;;5.40;;
3261;SDS011;1643;47.746;9.000;2022-10-12T15:08:48;8.00;;;5.63;;
3261;SDS011;1643;47.746;9.000;2022-10-12T15:11:14;8.70;;;5.77;;
3261;SDS011;1643;47.746;9.000;2022-10-12T15:13:40;9.93;;;6.50;;
3261;SDS011;1643;47.746;9.000;2022-10-12T15:16:14;10.90;;;6.37;;
3261;SDS011;1643;47.746;9.000;2022-10-12T15:18:48;8.63;;;5.70;;
3261;SDS011;1643;47.746;9.000;2022-10-12T15:21:14;8.83;;;5.80;;
3261;SDS011;1643;47.746;9.000;2022-10-12T15:23:40;11.73;;;5.10;;
3261;SDS011;1643;47.746;9.000;2022-10-12T15:26:05;7.17;;;5.30;;
3261;SDS011;1643;47.746;9.000;2022-10-12T15:28:34;15.53;;;6.60;;
3261;SDS011;1643;47.746;9.000;2022-10-12T15:31:00;7.57;;;4.77;;
3261;SDS011;1643;47.746;9.000;2022-10-12T15:33:26;7.10;;;5.60;;
3261;SDS011;1643;47.746;9.000;2022-10-12T15:35:53;6.93;;;5.43;;
3261;SDS011;1643;47.746;9.000;2022-10-12T15:38:18;8.70;;;5.20;;
3261;SDS011;1643;47.746;9.000;2022-10-12T15:40:44;7.63;;;5.53;;
3261;SDS011;1643;47.746;9.000;2022-10-12T15:43:10;7.50;;;4.47;;
3261;SDS011;1643;47.746;9.000;2022-10-12T15:45:37;7.60;;;5.47;;
3261;SDS011;1643;47.746;9.000;2022-10-12T15:48:04;9.33;;;6.10;;
3261;SDS011;1643;47.746;9.000;2022-10-12T15:50:52;8.90;;;5.53;;
3261;SDS011;1643;47.746;9.000;2022-10-12T15:53:18;13.33;;;6.43;;
3261;SDS011;1643;47.746;9.000;2022-10-12T15:55:48;8.30;;;5.53;;
3261;SDS011;1643;47.746;9.000;2022-10-12T15:58:15;7.70;;;5.97;;
3261;SDS011;1643;47.746;9.000;2022-10-12T16:00:40;7.67;;;5.73;;
3261;SDS011;1643;47.746;9.000;2022-10-12T16:03:08;10.03;;;5.73;;
3261;SDS011;1643;47.746;9.000;2022-10-12T16:05:42;8.50;;;6.13;;
3261;SDS011;1643;47.746;9.000;2022-10-12T16:08:08;13.80;;;8.37;;
3261;SDS011;1643;47.746;9.000;2022-10-12T16:10:34;9.47;;;7.00;;
3261;SDS011;1643;47.746;9.000;2022-10-12T16:13:03;12.80;;;7.40;;
3261;SDS011;1643;47.746;9.000;2022-10-12T16:15:31;12.57;;;6.90;;
3261;SDS011;1643;47.746;9.000;2022-10-12T16:17:58;10.67;;;7.10;;
3261;SDS011;1643;47.746;9.000;2022-10-12T16:20:25;10.40;;;6.03;;
3261;SDS011;1643;47.746;9.000;2022-10-12T16:22:52;7.30;;;4.43;;
3261;SDS011;1643;47.746;9.000;2022-10-12T16:25:18;6.93;;;4.57;;
3261;SDS011;1643;47.746;9.000;2022-10-12T16:27:48;6.23;;;4.83;;
3261;SDS011;1643;47.746;9.000;2022-10-12T16:30:15;6.43;;;4.73;;
3261;SDS011;1643;47.746;9.000;2022-10-12T16:32:41;7.90;;;4.60;;
3261;SDS011;1643;47.746;9.000;2022-10-12T16:35:07;6.70;;;4.90;;
3261;SDS011;1643;47.746;9.000;2022-10-12T16:37:33;6.63;;;5.10;;
3261;SDS011;1643;47.746;9.000;2022-10-12T16:40:00;10.70;;;5.30;;
3261;SDS011;1643;47.746;9.000;2022-10-12T16:42:26;6.83;;;4.60;;
3261;SDS011;1643;47.746;9.000;2022-10-12T16:44:52;5.70;;;4.90;;
3261;SDS011;1643;47.746;9.000;2022-10-12T16:47:17;5.53;;;4.57;;
3261;SDS011;1643;47.746;9.000;2022-10-12T16:49:43;5.83;;;5.23;;
3261;SDS011;1643;47.746;9.000;2022-10-12T16:52:09;6.50;;;4.47;;
3261;SDS011;1643;47.746;9.000;2022-10-12T16:54:35;4.90;;;4.17;;
3261;SDS011;1643;47.746;9.000;2022-10-12T16:57:01;6.30;;;4.67;;
3261;SDS011;1643;47.746;9.000;2022-10-12T16:59:27;7.27;;;4.87;;